sensor_id;sensor_type;location;lat;lon;timestamp;pressure;altitude;pressure_sealevel;temperature;humidity
13241;BME280;6687;47.790;7.322;2023-07-13T05:24:42;99105.78;;;22.70;59.82
13241;BME280;6687;47.790;7.322;2023-07-13T05:27:09;99098.44;;;23.34;58.97
13241;BME280;6687;47.790;7.322;2023-07-13T05:29:36;99103.84;;;23.67;58.01
13241;BME280;6687;47.790;7.322;2023-07-13T05:32:03;99115.13;;;23.90;56.38
13241;BME280;6687;47.790;7.322;2023-07-13T05:34:30;99111.44;;;24.10;56.83
13241;BME280;6687;47.790;7.322;2023-07-13T05:36:57;99112.38;;;24.26;54.52
13241;BME280;6687;47.790;7.322;2023-07-13T05:39:24;99114.13;;;24.43;53.94
13241;BME280;6687;47.790;7.322;2023-07-13T05:41:52;99115.78;;;24.46;53.86
13241;BME280;6687;47.790;7.322;2023-07-13T05:44:19;99120.56;;;24.72;54.05
13241;BME280;6687;47.790;7.322;2023-07-13T05:46:46;99121.63;;;24.86;53.82
13241;BME280;6687;47.790;7.322;2023-07-13T05:49:13;99128.38;;;24.91;52.96
13241;BME280;6687;47.790;7.322;2023-07-13T05:51:39;99129.13;;;24.77;53.19
13241;BME280;6687;47.790;7.322;2023-07-13T05:54:06;99131.66;;;24.63;52.92
13241;BME280;6687;47.790;7.322;2023-07-13T05:56:33;99138.81;;;24.94;52.85
13241;BME280;6687;47.790;7.322;2023-07-13T05:59:01;99141.19;;;24.83;52.46
13241;BME280;6687;47.790;7.322;2023-07-13T06:01:30;99136.84;;;25.14;51.95
13241;BME280;6687;47.790;7.322;2023-07-13T06:03:57;99139.03;;;25.39;51.53
13241;BME280;6687;47.790;7.322;2023-07-13T06:06:24;99140.28;;;25.00;50.82
13241;BME280;6687;47.790;7.322;2023-07-13T06:08:50;99138.28;;;25.37;51.16
13241;BME280;6687;47.790;7.322;2023-07-13T06:11:19;99135.09;;;25.46;51.10
13241;BME280;6687;47.790;7.322;2023-07-13T06:13:46;99136.03;;;25.29;51.40
13241;BME280;6687;47.790;7.322;2023-07-13T06:16:15;99149.63;;;25.71;50.48
13241;BME280;6687;47.790;7.322;2023-07-13T06:18:42;99146.63;;;25.77;49.98
13241;BME280;6687;47.790;7.322;2023-07-13T06:21:11;99153.78;;;26.07;49.01
13241;BME280;6687;47.790;7.322;2023-07-13T06:23:38;99151.13;;;26.21;48.47
13241;BME280;6687;47.790;7.322;2023-07-13T06:26:05;99149.84;;;25.82;48.09
13241;BME280;6687;47.790;7.322;2023-07-13T06:28:33;99159.88;;;26.23;48.50
13241;BME280;6687;47.790;7.322;2023-07-13T06:31:00;99160.41;;;26.44;47.60
13241;BME280;6687;47.790;7.322;2023-07-13T06:33:28;99156.63;;;26.48;45.15
13241;BME280;6687;47.790;7.322;2023-07-13T06:35:54;99166.25;;;26.94;45.98
13241;BME280;6687;47.790;7.322;2023-07-13T06:38:21;99156.75;;;26.75;46.38
13241;BME280;6687;47.790;7.322;2023-07-13T06:40:48;99154.84;;;26.92;45.46
13241;BME280;6687;47.790;7.322;2023-07-13T06:43:15;99163.28;;;26.98;44.80
13241;BME280;6687;47.790;7.322;2023-07-13T06:45:45;99164.59;;;27.20;44.82
13241;BME280;6687;47.790;7.322;2023-07-13T06:48:13;99170.78;;;27.35;44.38
13241;BME280;6687;47.790;7.322;2023-07-13T06:50:41;99169.72;;;27.37;44.08
13241;BME280;6687;47.790;7.322;2023-07-13T06:53:08;99166.38;;;27.48;44.33
13241;BME280;6687;47.790;7.322;2023-07-13T06:55:35;99162.97;;;27.46;43.71
13241;BME280;6687;47.790;7.322;2023-07-13T06:58:02;99165.44;;;27.35;44.08
13241;BME280;6687;47.790;7.322;2023-07-13T07:00:29;99162.00;;;27.47;43.33
13241;BME280;6687;47.790;7.322;2023-07-13T07:02:56;99163.25;;;27.69;43.19
13241;BME280;6687;47.790;7.322;2023-07-13T07:05:22;99165.63;;;27.73;43.46
13241;BME280;6687;47.790;7.322;2023-07-13T07:07:51;99171.28;;;27.96;42.65
13241;BME280;6687;47.790;7.322;2023-07-13T07:10:19;99167.63;;;27.97;42.56
13241;BME280;6687;47.790;7.322;2023-07-13T07:12:46;99172.50;;;28.17;42.33
13241;BME280;6687;47.790;7.322;2023-07-13T07:15:13;99168.09;;;28.04;42.79
13241;BME280;6687;47.790;7.322;2023-07-13T07:17:40;99169.44;;;28.24;42.07
13241;BME280;6687;47.790;7.322;2023-07-13T07:20:07;99176.06;;;28.44;41.26
13241;BME280;6687;47.790;7.322;2023-07-13T07:22:34;99170.28;;;28.37;41.72
13241;BME280;6687;47.790;7.322;2023-07-13T07:25:02;99169.47;;;28.62;40.82
13241;BME280;6687;47.790;7.322;2023-07-13T07:27:29;99167.41;;;27.87;41.18
13241;BME280;6687;47.790;7.322;2023-07-13T07:29:56;99174.63;;;28.65;40.75
13241;BME280;6687;47.790;7.322;2023-07-13T07:32:24;99168.81;;;28.46;40.24
13241;BME280;6687;47.790;7.322;2023-07-13T07:34:50;99177.16;;;28.54;40.08
13241;BME280;6687;47.790;7.322;2023-07-13T07:37:17;99171.84;;;28.80;39.57
13241;BME280;6687;47.790;7.322;2023-07-13T07:39:44;99170.84;;;28.93;39.69
13241;BME280;6687;47.790;7.322;2023-07-13T07:42:12;99169.38;;;28.76;39.80
13241;BME280;6687;47.790;7.322;2023-07-13T07:44:40;99170.53;;;28.98;39.07
13241;BME280;6687;47.790;7.322;2023-07-13T07:47:07;99175.66;;;29.01;38.95
13241;BME280;6687;47.790;7.322;2023-07-13T07:49:34;99172.75;;;29.04;39.00
13241;BME280;6687;47.790;7.322;2023-07-13T07:52:01;99178.22;;;29.15;38.68
13241;BME280;6687;47.790;7.322;2023-07-13T07:54:27;99184.16;;;29.32;37.65
13241;BME280;6687;47.790;7.322;2023-07-13T07:56:54;99183.75;;;29.25;38.12
13241;BME280;6687;47.790;7.322;2023-07-13T07:59:22;99185.59;;;29.49;37.91
13241;BME280;6687;47.790;7.322;2023-07-13T08:01:49;99184.53;;;29.51;38.11
13241;BME280;6687;47.790;7.322;2023-07-13T08:04:16;99189.28;;;29.22;36.91
13241;BME280;6687;47.790;7.322;2023-07-13T08:06:43;99186.22;;;29.15;36.70
13241;BME280;6687;47.790;7.322;2023-07-13T08:09:09;99179.72;;;29.57;35.89
13241;BME280;6687;47.790;7.322;2023-07-13T08:11:36;99183.31;;;29.92;36.61
13241;BME280;6687;47.790;7.322;2023-07-13T08:14:03;99186.28;;;29.77;37.24
13241;BME280;6687;47.790;7.322;2023-07-13T08:16:31;99188.22;;;29.99;36.83
13241;BME280;6687;47.790;7.322;2023-07-13T08:18:58;99182.75;;;29.76;35.74
13241;BME280;6687;47.790;7.322;2023-07-13T08:21:25;99186.13;;;30.26;36.52
13241;BME280;6687;47.790;7.322;2023-07-13T08:23:51;99191.94;;;30.20;36.46
13241;BME280;6687;47.790;7.322;2023-07-13T08:26:18;99185.47;;;30.47;36.59
13241;BME280;6687;47.790;7.322;2023-07-13T08:28:45;99184.75;;;30.45;36.14
13241;BME280;6687;47.790;7.322;2023-07-13T08:31:11;99182.16;;;30.08;36.45
13241;BME280;6687;47.790;7.322;2023-07-13T08:33:40;99178.41;;;30.35;35.98
13241;BME280;6687;47.790;7.322;2023-07-13T08:36:07;99170.50;;;30.09;36.05
13241;BME280;6687;47.790;7.322;2023-07-13T08:38:34;99170.66;;;30.19;35.40
13241;BME280;6687;47.790;7.322;2023-07-13T08:41:11;99183.56;;;30.83;34.07
13241;BME280;6687;47.790;7.322;2023-07-13T08:43:38;99180.66;;;30.75;35.00
13241;BME280;6687;47.790;7.322;2023-07-13T08:46:09;99177.50;;;30.81;34.41
13241;BME280;6687;47.790;7.322;2023-07-13T08:48:43;99184.34;;;30.96;34.24
13241;BME280;6687;47.790;7.322;2023-07-13T08:51:21;99176.91;;;31.00;34.14
13241;BME280;6687;47.790;7.322;2023-07-13T08:53:52;99170.22;;;31.05;33.71
13241;BME280;6687;47.790;7.322;2023-07-13T08:56:22;99181.66;;;31.30;33.33
13241;BME280;6687;47.790;7.322;2023-07-13T08:58:53;99183.84;;;31.36;32.85
13241;BME280;6687;47.790;7.322;2023-07-13T09:01:25;99174.59;;;31.51;31.64
13241;BME280;6687;47.790;7.322;2023-07-13T09:04:01;99169.69;;;31.45;32.75
13241;BME280;6687;47.790;7.322;2023-07-13T09:06:38;99167.34;;;31.63;33.03
13241;BME280;6687;47.790;7.322;2023-07-13T09:09:10;99174.75;;;31.71;32.61
13241;BME280;6687;47.790;7.322;2023-07-13T09:11:52;99171.66;;;31.87;32.52
13241;BME280;6687;47.790;7.322;2023-07-13T09:14:40;99169.47;;;31.48;33.20
13241;BME280;6687;47.790;7.322;2023-07-13T09:17:13;99168.66;;;32.13;31.68
13241;BME280;6687;47.790;7.322;2023-07-13T09:19:43;99161.41;;;32.24;32.45
13241;BME280;6687;47.790;7.322;2023-07-13T09:22:14;99164.41;;;32.10;32.99
13241;BME280;6687;47.790;7.322;2023-07-13T09:24:51;99162.97;;;32.48;32.09
13241;BME280;6687;47.790;7.322;2023-07-13T09:27:22;99157.13;;;32.43;31.84
13241;BME280;6687;47.790;7.322;2023-07-13T09:29:57;99158.53;;;32.16;32.04
13241;BME280;6687;47.790;7.322;2023-07-13T09:32:26;99159.38;;;32.38;31.57
13241;BME280;6687;47.790;7.322;2023-07-13T09:34:54;99170.00;;;32.07;30.10
13241;BME280;6687;47.790;7.322;2023-07-13T09:37:28;99165.38;;;32.72;29.59
13241;BME280;6687;47.790;7.322;2023-07-13T09:39:55;99162.50;;;32.43;28.91
13241;BME280;6687;47.790;7.322;2023-07-13T09:42:22;99166.19;;;32.63;30.81
13241;BME280;6687;47.790;7.322;2023-07-13T09:44:52;99156.06;;;31.48;28.51
13241;BME280;6687;47.790;7.322;2023-07-13T09:47:21;99159.38;;;32.38;30.53
13241;BME280;6687;47.790;7.322;2023-07-13T09:49:58;99158.91;;;32.33;30.69
13241;BME280;6687;47.790;7.322;2023-07-13T09:52:26;99157.81;;;32.35;29.83
13241;BME280;6687;47.790;7.322;2023-07-13T09:54:54;99160.09;;;32.40;30.05
13241;BME280;6687;47.790;7.322;2023-07-13T09:57:26;99159.63;;;32.35;29.75
13241;BME280;6687;47.790;7.322;2023-07-13T09:59:55;99156.81;;;32.15;29.96
13241;BME280;6687;47.790;7.322;2023-07-13T10:02:26;99164.22;;;32.02;29.46
13241;BME280;6687;47.790;7.322;2023-07-13T10:04:59;99151.75;;;32.01;29.44
13241;BME280;6687;47.790;7.322;2023-07-13T10:07:27;99163.09;;;31.93;28.88
13241;BME280;6687;47.790;7.322;2023-07-13T10:09:55;99156.03;;;32.03;28.88
13241;BME280;6687;47.790;7.322;2023-07-13T10:12:22;99159.59;;;31.81;30.67
13241;BME280;6687;47.790;7.322;2023-07-13T10:14:52;99164.94;;;31.92;29.36
13241;BME280;6687;47.790;7.322;2023-07-13T10:17:26;99170.56;;;32.22;28.91
13241;BME280;6687;47.790;7.322;2023-07-13T10:19:59;99169.44;;;32.24;27.94
13241;BME280;6687;47.790;7.322;2023-07-13T10:22:35;99159.72;;;32.23;28.82
13241;BME280;6687;47.790;7.322;2023-07-13T10:25:13;99168.00;;;32.62;29.58
13241;BME280;6687;47.790;7.322;2023-07-13T10:27:40;99165.00;;;32.35;28.93
13241;BME280;6687;47.790;7.322;2023-07-13T10:30:13;99165.44;;;32.82;28.63
13241;BME280;6687;47.790;7.322;2023-07-13T10:32:42;99177.69;;;33.05;28.54
13241;BME280;6687;47.790;7.322;2023-07-13T10:35:13;99170.13;;;33.20;27.87
13241;BME280;6687;47.790;7.322;2023-07-13T10:37:48;99171.44;;;32.95;27.13
13241;BME280;6687;47.790;7.322;2023-07-13T10:40:18;99174.28;;;33.03;27.35
13241;BME280;6687;47.790;7.322;2023-07-13T10:42:50;99176.25;;;32.70;28.28
13241;BME280;6687;47.790;7.322;2023-07-13T10:45:20;99176.88;;;33.15;28.05
13241;BME280;6687;47.790;7.322;2023-07-13T10:47:48;99166.22;;;33.34;26.41
13241;BME280;6687;47.790;7.322;2023-07-13T10:50:22;99161.78;;;33.83;25.56
13241;BME280;6687;47.790;7.322;2023-07-13T10:52:51;99167.28;;;33.72;27.72
13241;BME280;6687;47.790;7.322;2023-07-13T10:55:37;99160.31;;;33.60;27.37
13241;BME280;6687;47.790;7.322;2023-07-13T10:58:18;99159.78;;;33.66;27.49
13241;BME280;6687;47.790;7.322;2023-07-13T11:01:03;99168.59;;;34.07;26.10
13241;BME280;6687;47.790;7.322;2023-07-13T11:03:31;99160.69;;;34.15;26.39
13241;BME280;6687;47.790;7.322;2023-07-13T11:06:09;99171.13;;;33.99;26.30
13241;BME280;6687;47.790;7.322;2023-07-13T11:08:37;99164.88;;;34.08;26.51
13241;BME280;6687;47.790;7.322;2023-07-13T11:11:33;99156.41;;;34.03;25.46
13241;BME280;6687;47.790;7.322;2023-07-13T11:14:02;99156.13;;;34.16;23.86
13241;BME280;6687;47.790;7.322;2023-07-13T11:16:35;99154.56;;;34.03;26.00
13241;BME280;6687;47.790;7.322;2023-07-13T11:19:24;99166.59;;;34.09;24.94
13241;BME280;6687;47.790;7.322;2023-07-13T11:22:11;99160.38;;;33.99;25.89
13241;BME280;6687;47.790;7.322;2023-07-13T11:24:59;99157.22;;;34.52;25.80
13241;BME280;6687;47.790;7.322;2023-07-13T11:27:39;99164.06;;;34.17;25.95
13241;BME280;6687;47.790;7.322;2023-07-13T11:30:20;99156.66;;;33.61;25.97
13241;BME280;6687;47.790;7.322;2023-07-13T11:32:50;99167.47;;;34.19;25.25
13241;BME280;6687;47.790;7.322;2023-07-13T11:35:22;99157.53;;;34.30;25.54
13241;BME280;6687;47.790;7.322;2023-07-13T11:37:50;99159.47;;;34.66;25.72
13241;BME280;6687;47.790;7.322;2023-07-13T11:40:18;99161.66;;;34.91;23.56
13241;BME280;6687;47.790;7.322;2023-07-13T11:42:45;99152.84;;;34.98;24.99
13241;BME280;6687;47.790;7.322;2023-07-13T11:45:21;99146.63;;;33.92;26.12
13241;BME280;6687;47.790;7.322;2023-07-13T11:47:49;99145.59;;;34.52;24.25
13241;BME280;6687;47.790;7.322;2023-07-13T11:50:20;99150.38;;;34.58;23.68
13241;BME280;6687;47.790;7.322;2023-07-13T11:52:48;99148.44;;;34.50;24.21
13241;BME280;6687;47.790;7.322;2023-07-13T11:55:18;99147.53;;;35.06;24.08
13241;BME280;6687;47.790;7.322;2023-07-13T11:57:49;99153.31;;;35.12;24.51
13241;BME280;6687;47.790;7.322;2023-07-13T12:00:22;99153.78;;;35.35;25.39
13241;BME280;6687;47.790;7.322;2023-07-13T12:02:51;99146.09;;;35.22;24.96
13241;BME280;6687;47.790;7.322;2023-07-13T12:05:19;99141.53;;;34.85;25.66
13241;BME280;6687;47.790;7.322;2023-07-13T12:07:47;99133.53;;;35.31;25.21
13241;BME280;6687;47.790;7.322;2023-07-13T12:10:19;99142.56;;;35.57;23.92
13241;BME280;6687;47.790;7.322;2023-07-13T12:12:48;99141.75;;;35.01;24.94
13241;BME280;6687;47.790;7.322;2023-07-13T12:15:17;99150.16;;;35.26;23.37
13241;BME280;6687;47.790;7.322;2023-07-13T12:17:44;99139.41;;;35.26;23.20
13241;BME280;6687;47.790;7.322;2023-07-13T12:20:19;99130.94;;;35.39;22.38
13241;BME280;6687;47.790;7.322;2023-07-13T12:22:47;99124.78;;;35.47;23.01
13241;BME280;6687;47.790;7.322;2023-07-13T12:25:15;99137.41;;;35.46;23.17
13241;BME280;6687;47.790;7.322;2023-07-13T12:27:46;99132.22;;;35.80;23.54
13241;BME280;6687;47.790;7.322;2023-07-13T12:30:26;99124.00;;;35.36;22.27
13241;BME280;6687;47.790;7.322;2023-07-13T12:32:59;99123.56;;;35.59;21.90
13241;BME280;6687;47.790;7.322;2023-07-13T12:35:29;99127.38;;;35.66;22.31
13241;BME280;6687;47.790;7.322;2023-07-13T12:37:59;99127.09;;;35.59;23.79
13241;BME280;6687;47.790;7.322;2023-07-13T12:40:31;99119.91;;;35.78;24.41
13241;BME280;6687;47.790;7.322;2023-07-13T12:43:01;99118.78;;;36.07;23.70
13241;BME280;6687;47.790;7.322;2023-07-13T12:45:30;99116.00;;;36.16;22.62
13241;BME280;6687;47.790;7.322;2023-07-13T12:47:58;99116.91;;;36.07;23.83
13241;BME280;6687;47.790;7.322;2023-07-13T12:50:30;99119.72;;;36.15;23.36
13241;BME280;6687;47.790;7.322;2023-07-13T12:53:05;99120.88;;;36.39;20.93
13241;BME280;6687;47.790;7.322;2023-07-13T12:55:41;99122.50;;;35.88;21.19
13241;BME280;6687;47.790;7.322;2023-07-13T12:58:18;99117.13;;;35.70;20.90
13241;BME280;6687;47.790;7.322;2023-07-13T13:00:49;99125.28;;;35.78;22.31
13241;BME280;6687;47.790;7.322;2023-07-13T13:03:23;99113.09;;;35.92;21.75
13241;BME280;6687;47.790;7.322;2023-07-13T13:05:57;99115.56;;;35.67;21.42
13241;BME280;6687;47.790;7.322;2023-07-13T13:08:25;99115.72;;;36.19;20.12
13241;BME280;6687;47.790;7.322;2023-07-13T13:10:51;99102.31;;;35.92;20.53
13241;BME280;6687;47.790;7.322;2023-07-13T13:13:19;99105.38;;;36.41;21.22
13241;BME280;6687;47.790;7.322;2023-07-13T13:15:46;99108.03;;;36.33;21.79
13241;BME280;6687;47.790;7.322;2023-07-13T13:18:16;99121.94;;;36.20;21.71
13241;BME280;6687;47.790;7.322;2023-07-13T13:20:43;99106.00;;;36.35;20.60
13241;BME280;6687;47.790;7.322;2023-07-13T13:23:12;99105.44;;;36.49;20.56
13241;BME280;6687;47.790;7.322;2023-07-13T13:25:40;99107.19;;;36.14;21.13
13241;BME280;6687;47.790;7.322;2023-07-13T13:28:13;99115.91;;;36.52;21.33
13241;BME280;6687;47.790;7.322;2023-07-13T13:30:42;99106.16;;;36.59;20.23
13241;BME280;6687;47.790;7.322;2023-07-13T13:33:10;99108.72;;;36.35;22.11
13241;BME280;6687;47.790;7.322;2023-07-13T13:35:38;99115.97;;;36.34;20.88
13241;BME280;6687;47.790;7.322;2023-07-13T13:38:10;99111.94;;;36.38;19.66
13241;BME280;6687;47.790;7.322;2023-07-13T13:40:37;99107.34;;;36.31;20.26
13241;BME280;6687;47.790;7.322;2023-07-13T13:43:14;99116.34;;;35.77;20.22
13241;BME280;6687;47.790;7.322;2023-07-13T13:45:42;99111.63;;;36.15;20.18
13241;BME280;6687;47.790;7.322;2023-07-13T13:48:14;99119.13;;;35.68;19.22
13241;BME280;6687;47.790;7.322;2023-07-13T13:50:42;99104.38;;;36.42;18.86
13241;BME280;6687;47.790;7.322;2023-07-13T13:53:10;99114.50;;;36.40;19.58
13241;BME280;6687;47.790;7.322;2023-07-13T13:55:38;99101.84;;;36.67;19.71
13241;BME280;6687;47.790;7.322;2023-07-13T13:58:07;99119.78;;;36.50;19.12
13241;BME280;6687;47.790;7.322;2023-07-13T14:00:34;99116.16;;;35.97;20.32
13241;BME280;6687;47.790;7.322;2023-07-13T14:03:03;99120.97;;;36.47;20.51
13241;BME280;6687;47.790;7.322;2023-07-13T14:05:32;99116.63;;;36.62;21.35
13241;BME280;6687;47.790;7.322;2023-07-13T14:07:59;99124.50;;;36.74;20.93
13241;BME280;6687;47.790;7.322;2023-07-13T14:10:26;99119.94;;;36.48;20.02
13241;BME280;6687;47.790;7.322;2023-07-13T14:12:54;99125.03;;;36.51;19.66
13241;BME280;6687;47.790;7.322;2023-07-13T14:15:24;99120.47;;;36.26;19.07
13241;BME280;6687;47.790;7.322;2023-07-13T14:17:51;99123.50;;;36.57;19.08
13241;BME280;6687;47.790;7.322;2023-07-13T14:20:21;99121.50;;;36.33;18.08
13241;BME280;6687;47.790;7.322;2023-07-13T14:22:49;99116.69;;;36.97;19.15
13241;BME280;6687;47.790;7.322;2023-07-13T14:25:17;99116.25;;;37.18;19.94
13241;BME280;6687;47.790;7.322;2023-07-13T14:27:45;99121.91;;;36.64;19.98
13241;BME280;6687;47.790;7.322;2023-07-13T14:30:14;99132.84;;;36.62;20.59
13241;BME280;6687;47.790;7.322;2023-07-13T14:32:40;99116.63;;;36.89;20.41
13241;BME280;6687;47.790;7.322;2023-07-13T14:35:10;99119.16;;;36.90;19.15
13241;BME280;6687;47.790;7.322;2023-07-13T14:37:39;99117.06;;;36.76;19.36
13241;BME280;6687;47.790;7.322;2023-07-13T14:40:13;99118.63;;;36.87;19.09
13241;BME280;6687;47.790;7.322;2023-07-13T14:42:40;99126.06;;;36.58;18.56
13241;BME280;6687;47.790;7.322;2023-07-13T14:45:13;99124.41;;;36.31;19.03
13241;BME280;6687;47.790;7.322;2023-07-13T14:47:39;99124.31;;;36.05;17.61
13241;BME280;6687;47.790;7.322;2023-07-13T14:50:12;99124.91;;;36.35;17.49
13241;BME280;6687;47.790;7.322;2023-07-13T14:52:41;99130.47;;;36.59;18.12
13241;BME280;6687;47.790;7.322;2023-07-13T14:55:11;99121.84;;;36.30;17.45
13241;BME280;6687;47.790;7.322;2023-07-13T14:57:38;99126.31;;;36.65;18.85
13241;BME280;6687;47.790;7.322;2023-07-13T15:00:09;99117.38;;;36.73;19.01
13241;BME280;6687;47.790;7.322;2023-07-13T15:02:39;99116.88;;;36.69;17.35
13241;BME280;6687;47.790;7.322;2023-07-13T15:05:13;99116.25;;;36.49;17.37
13241;BME280;6687;47.790;7.322;2023-07-13T15:07:41;99107.13;;;36.76;18.83
13241;BME280;6687;47.790;7.322;2023-07-13T15:10:14;99106.41;;;36.66;17.85
13241;BME280;6687;47.790;7.322;2023-07-13T15:12:41;99110.69;;;36.77;18.00
13241;BME280;6687;47.790;7.322;2023-07-13T15:15:08;99098.03;;;36.51;18.77
13241;BME280;6687;47.790;7.322;2023-07-13T15:17:37;99102.31;;;37.05;17.69
13241;BME280;6687;47.790;7.322;2023-07-13T15:20:11;99103.00;;;36.38;18.07
13241;BME280;6687;47.790;7.322;2023-07-13T15:22:44;99100.50;;;36.71;18.17
13241;BME280;6687;47.790;7.322;2023-07-13T15:25:15;99099.88;;;36.77;17.52
13241;BME280;6687;47.790;7.322;2023-07-13T15:27:42;99103.00;;;37.07;17.55
13241;BME280;6687;47.790;7.322;2023-07-13T15:30:10;99106.38;;;37.09;17.32
13241;BME280;6687;47.790;7.322;2023-07-13T15:32:37;99104.97;;;36.88;18.56
13241;BME280;6687;47.790;7.322;2023-07-13T15:35:05;99110.03;;;37.34;16.84
13241;BME280;6687;47.790;7.322;2023-07-13T15:37:32;99112.06;;;36.81;18.09
13241;BME280;6687;47.790;7.322;2023-07-13T15:40:00;99101.78;;;37.35;18.15
13241;BME280;6687;47.790;7.322;2023-07-13T15:42:27;99113.09;;;37.39;18.48
13241;BME280;6687;47.790;7.322;2023-07-13T15:44:53;99112.38;;;36.86;18.13
13241;BME280;6687;47.790;7.322;2023-07-13T15:47:20;99111.69;;;37.18;18.62
13241;BME280;6687;47.790;7.322;2023-07-13T15:49:47;99107.38;;;36.99;18.16
13241;BME280;6687;47.790;7.322;2023-07-13T15:52:17;99119.13;;;37.25;18.64
13241;BME280;6687;47.790;7.322;2023-07-13T15:54:45;99119.00;;;36.92;18.65
13241;BME280;6687;47.790;7.322;2023-07-13T15:57:15;99114.50;;;37.09;18.16
13241;BME280;6687;47.790;7.322;2023-07-13T15:59:42;99116.91;;;37.12;19.17
13241;BME280;6687;47.790;7.322;2023-07-13T16:02:13;99119.63;;;37.20;19.00
13241;BME280;6687;47.790;7.322;2023-07-13T16:04:43;99116.84;;;36.43;18.90
13241;BME280;6687;47.790;7.322;2023-07-13T16:07:10;99111.81;;;36.74;18.75
13241;BME280;6687;47.790;7.322;2023-07-13T16:09:38;99117.00;;;37.02;19.13
13241;BME280;6687;47.790;7.322;2023-07-13T16:12:09;99115.94;;;37.21;18.49
13241;BME280;6687;47.790;7.322;2023-07-13T16:14:38;99113.94;;;37.39;19.31
13241;BME280;6687;47.790;7.322;2023-07-13T16:17:07;99110.59;;;36.95;19.52
13241;BME280;6687;47.790;7.322;2023-07-13T16:19:35;99113.25;;;37.29;19.52
13241;BME280;6687;47.790;7.322;2023-07-13T16:22:03;99108.16;;;37.26;18.74
13241;BME280;6687;47.790;7.322;2023-07-13T16:24:32;99111.03;;;37.25;19.20
13241;BME280;6687;47.790;7.322;2023-07-13T16:26:59;99112.88;;;37.16;18.97
13241;BME280;6687;47.790;7.322;2023-07-13T16:29:29;99115.59;;;37.24;19.00
13241;BME280;6687;47.790;7.322;2023-07-13T16:31:59;99111.88;;;36.82;19.51
13241;BME280;6687;47.790;7.322;2023-07-13T16:34:26;99113.03;;;37.14;18.45
13241;BME280;6687;47.790;7.322;2023-07-13T16:36:53;99112.78;;;36.99;18.95
13241;BME280;6687;47.790;7.322;2023-07-13T16:39:21;99119.13;;;36.82;19.24
13241;BME280;6687;47.790;7.322;2023-07-13T16:41:49;99123.38;;;36.93;18.60
13241;BME280;6687;47.790;7.322;2023-07-13T16:44:17;99120.00;;;37.33;19.35
13241;BME280;6687;47.790;7.322;2023-07-13T16:46:46;99124.34;;;37.18;19.35
13241;BME280;6687;47.790;7.322;2023-07-13T16:49:24;99115.59;;;37.24;19.54
13241;BME280;6687;47.790;7.322;2023-07-13T16:51:52;99112.41;;;37.29;19.62
13241;BME280;6687;47.790;7.322;2023-07-13T16:54:19;99112.88;;;37.16;18.39
13241;BME280;6687;47.790;7.322;2023-07-13T16:56:46;99117.63;;;37.30;20.22
13241;BME280;6687;47.790;7.322;2023-07-13T16:59:16;99117.31;;;37.33;19.54
13241;BME280;6687;47.790;7.322;2023-07-13T17:01:43;99106.19;;;37.53;19.26
13241;BME280;6687;47.790;7.322;2023-07-13T17:04:12;99112.63;;;37.01;19.03
13241;BME280;6687;47.790;7.322;2023-07-13T17:06:43;99118.13;;;36.83;18.77
13241;BME280;6687;47.790;7.322;2023-07-13T17:09:12;99114.25;;;36.86;18.46
13241;BME280;6687;47.790;7.322;2023-07-13T17:11:39;99108.81;;;37.20;18.64
13241;BME280;6687;47.790;7.322;2023-07-13T17:14:12;99115.13;;;36.94;18.74
13241;BME280;6687;47.790;7.322;2023-07-13T17:16:44;99112.06;;;36.89;19.29
13241;BME280;6687;47.790;7.322;2023-07-13T17:19:13;99119.59;;;36.69;19.16
13241;BME280;6687;47.790;7.322;2023-07-13T17:21:43;99112.94;;;36.11;19.32
13241;BME280;6687;47.790;7.322;2023-07-13T17:24:15;99120.81;;;35.87;19.57
13241;BME280;6687;47.790;7.322;2023-07-13T17:26:42;99119.88;;;35.96;19.40
13241;BME280;6687;47.790;7.322;2023-07-13T17:29:09;99121.66;;;35.69;20.10
13241;BME280;6687;47.790;7.322;2023-07-13T17:31:36;99125.13;;;35.16;20.34
13241;BME280;6687;47.790;7.322;2023-07-13T17:34:03;99127.75;;;35.25;20.37
13241;BME280;6687;47.790;7.322;2023-07-13T17:36:31;99135.53;;;35.01;20.36
13241;BME280;6687;47.790;7.322;2023-07-13T17:39:01;99123.56;;;34.76;20.71
13241;BME280;6687;47.790;7.322;2023-07-13T17:41:29;99132.06;;;34.81;21.16
13241;BME280;6687;47.790;7.322;2023-07-13T17:43:56;99131.06;;;35.37;20.75
13241;BME280;6687;47.790;7.322;2023-07-13T17:46:25;99124.00;;;35.36;20.91
13241;BME280;6687;47.790;7.322;2023-07-13T17:48:54;99120.22;;;35.47;21.38
13241;BME280;6687;47.790;7.322;2023-07-13T17:51:21;99128.22;;;35.21;21.04
13241;BME280;6687;47.790;7.322;2023-07-13T17:53:48;99131.38;;;34.79;21.48
13241;BME280;6687;47.790;7.322;2023-07-13T17:56:16;99131.00;;;34.54;21.23
13241;BME280;6687;47.790;7.322;2023-07-13T17:58:44;99137.34;;;34.63;20.86
13241;BME280;6687;47.790;7.322;2023-07-13T18:01:13;99127.72;;;34.60;21.26
13241;BME280;6687;47.790;7.322;2023-07-13T18:03:42;99131.75;;;35.12;20.93
13241;BME280;6687;47.790;7.322;2023-07-13T18:06:12;99131.81;;;34.74;20.93
13241;BME280;6687;47.790;7.322;2023-07-13T18:08:45;99136.47;;;34.82;21.43
13241;BME280;6687;47.790;7.322;2023-07-13T18:11:12;99139.63;;;34.67;20.56
13241;BME280;6687;47.790;7.322;2023-07-13T18:13:41;99138.63;;;34.59;21.34
13241;BME280;6687;47.790;7.322;2023-07-13T18:16:19;99128.41;;;34.15;21.51
13241;BME280;6687;47.790;7.322;2023-07-13T18:18:50;99134.34;;;34.19;21.85
13241;BME280;6687;47.790;7.322;2023-07-13T18:21:17;99131.81;;;33.18;22.59
13241;BME280;6687;47.790;7.322;2023-07-13T18:23:44;99132.38;;;33.12;23.30
13241;BME280;6687;47.790;7.322;2023-07-13T18:26:12;99135.94;;;32.61;23.94
13241;BME280;6687;47.790;7.322;2023-07-13T18:28:41;99139.94;;;32.66;23.83
13241;BME280;6687;47.790;7.322;2023-07-13T18:31:10;99139.31;;;32.84;23.94
13241;BME280;6687;47.790;7.322;2023-07-13T18:33:39;99135.59;;;32.54;24.03
13241;BME280;6687;47.790;7.322;2023-07-13T18:36:11;99133.78;;;32.76;23.92
13241;BME280;6687;47.790;7.322;2023-07-13T18:38:40;99135.78;;;32.83;24.16
13241;BME280;6687;47.790;7.322;2023-07-13T18:41:09;99139.56;;;32.71;24.41
13241;BME280;6687;47.790;7.322;2023-07-13T18:43:37;99138.84;;;32.79;24.23
13241;BME280;6687;47.790;7.322;2023-07-13T18:46:12;99141.09;;;32.74;24.30